sensor_id;sensor_type;location;lat;lon;timestamp;pressure;altitude;pressure_sealevel;temperature;humidity
13407;BME280;6774;48.208;10.766;2023-06-04T00:00:06;95493.34;;;14.47;75.22
13407;BME280;6774;48.208;10.766;2023-06-04T00:02:35;95492.31;;;14.41;75.27
13407;BME280;6774;48.208;10.766;2023-06-04T00:05:04;95484.19;;;14.36;75.31
13407;BME280;6774;48.208;10.766;2023-06-04T00:07:32;95496.22;;;14.32;75.12
13407;BME280;6774;48.208;10.766;2023-06-04T00:09:59;95498.72;;;14.27;75.04
13407;BME280;6774;48.208;10.766;2023-06-04T00:12:27;95499.13;;;14.24;74.88
13407;BME280;6774;48.208;10.766;2023-06-04T00:14:56;95499.56;;;14.21;74.71
13407;BME280;6774;48.208;10.766;2023-06-04T00:17:24;95493.44;;;14.20;74.33
13407;BME280;6774;48.208;10.766;2023-06-04T00:19:52;95496.31;;;14.19;74.16
13407;BME280;6774;48.208;10.766;2023-06-04T00:22:20;95487.31;;;14.20;73.85
13407;BME280;6774;48.208;10.766;2023-06-04T00:24:48;95493.03;;;14.17;73.71
13407;BME280;6774;48.208;10.766;2023-06-04T00:27:16;95487.09;;;14.15;73.21
13407;BME280;6774;48.208;10.766;2023-06-04T00:29:43;95488.13;;;14.14;73.11
13407;BME280;6774;48.208;10.766;2023-06-04T00:32:12;95486.50;;;14.13;72.77
13407;BME280;6774;48.208;10.766;2023-06-04T00:34:40;95486.50;;;14.13;72.52
13407;BME280;6774;48.208;10.766;2023-06-04T00:37:08;95483.25;;;14.11;72.11
13407;BME280;6774;48.208;10.766;2023-06-04T00:39:36;95480.81;;;14.09;71.97
13407;BME280;6774;48.208;10.766;2023-06-04T00:42:05;95483.66;;;14.08;71.90
13407;BME280;6774;48.208;10.766;2023-06-04T00:44:33;95487.34;;;14.07;71.93
13407;BME280;6774;48.208;10.766;2023-06-04T00:47:03;95485.13;;;14.04;72.15
13407;BME280;6774;48.208;10.766;2023-06-04T00:49:32;95480.03;;;14.02;71.72
13407;BME280;6774;48.208;10.766;2023-06-04T00:52:00;95479.63;;;13.99;71.92
13407;BME280;6774;48.208;10.766;2023-06-04T00:54:28;95481.66;;;13.97;72.01
13407;BME280;6774;48.208;10.766;2023-06-04T00:56:56;95487.41;;;13.93;71.83
13407;BME280;6774;48.208;10.766;2023-06-04T00:59:24;95482.31;;;13.92;72.20
13407;BME280;6774;48.208;10.766;2023-06-04T01:01:56;95494.75;;;13.91;72.94
13407;BME280;6774;48.208;10.766;2023-06-04T01:04:30;95489.84;;;13.88;73.35
13407;BME280;6774;48.208;10.766;2023-06-04T01:07:03;95486.41;;;13.81;73.66
13407;BME280;6774;48.208;10.766;2023-06-04T01:09:32;95491.13;;;13.73;73.85
13407;BME280;6774;48.208;10.766;2023-06-04T01:12:03;95497.63;;;13.70;74.27
13407;BME280;6774;48.208;10.766;2023-06-04T01:14:31;95485.84;;;13.66;74.61
13407;BME280;6774;48.208;10.766;2023-06-04T01:17:02;95492.38;;;13.63;74.85
13407;BME280;6774;48.208;10.766;2023-06-04T01:20:14;95489.91;;;13.62;75.10
13407;BME280;6774;48.208;10.766;2023-06-04T01:22:56;95488.69;;;13.58;74.70
13407;BME280;6774;48.208;10.766;2023-06-04T01:25:32;95487.50;;;13.54;74.64
13407;BME280;6774;48.208;10.766;2023-06-04T01:28:02;95488.91;;;13.50;74.22
13407;BME280;6774;48.208;10.766;2023-06-04T01:30:32;95485.28;;;13.44;74.05
13407;BME280;6774;48.208;10.766;2023-06-04T01:33:02;95491.97;;;13.40;74.05
13407;BME280;6774;48.208;10.766;2023-06-04T01:35:30;95488.72;;;13.38;73.85
13407;BME280;6774;48.208;10.766;2023-06-04T01:38:00;95489.97;;;13.35;73.66
13407;BME280;6774;48.208;10.766;2023-06-04T01:40:28;95498.09;;;13.34;73.70
13407;BME280;6774;48.208;10.766;2023-06-04T01:42:56;95502.59;;;13.33;73.46
13407;BME280;6774;48.208;10.766;2023-06-04T01:45:25;95492.41;;;13.30;74.03
13407;BME280;6774;48.208;10.766;2023-06-04T01:47:54;95496.50;;;13.26;74.07
13407;BME280;6774;48.208;10.766;2023-06-04T01:50:23;95492.00;;;13.20;74.78
13407;BME280;6774;48.208;10.766;2023-06-04T01:52:51;95494.41;;;13.15;74.99
13407;BME280;6774;48.208;10.766;2023-06-04T01:55:20;95506.44;;;13.11;75.16
13407;BME280;6774;48.208;10.766;2023-06-04T01:57:49;95502.53;;;13.07;75.80
13407;BME280;6774;48.208;10.766;2023-06-04T02:00:17;95501.34;;;13.03;76.07
13407;BME280;6774;48.208;10.766;2023-06-04T02:02:46;95487.47;;;13.01;76.12
13407;BME280;6774;48.208;10.766;2023-06-04T02:05:15;95499.91;;;13.00;76.25
13407;BME280;6774;48.208;10.766;2023-06-04T02:07:45;95505.41;;;12.99;76.28
13407;BME280;6774;48.208;10.766;2023-06-04T02:10:15;95504.59;;;12.92;76.51
13407;BME280;6774;48.208;10.766;2023-06-04T02:12:55;95499.28;;;12.92;76.46
13407;BME280;6774;48.208;10.766;2023-06-04T02:15:24;95503.34;;;12.88;76.41
13407;BME280;6774;48.208;10.766;2023-06-04T02:17:55;95500.09;;;12.86;76.54
13407;BME280;6774;48.208;10.766;2023-06-04T02:20:24;95506.41;;;12.85;76.75
13407;BME280;6774;48.208;10.766;2023-06-04T02:22:53;95507.00;;;12.80;76.59
13407;BME280;6774;48.208;10.766;2023-06-04T02:25:21;95494.38;;;12.75;76.23
13407;BME280;6774;48.208;10.766;2023-06-04T02:27:49;95503.34;;;12.74;76.17
13407;BME280;6774;48.208;10.766;2023-06-04T02:30:19;95496.63;;;12.72;76.04
13407;BME280;6774;48.208;10.766;2023-06-04T02:32:47;95499.66;;;12.69;75.49
13407;BME280;6774;48.208;10.766;2023-06-04T02:35:18;95496.38;;;12.67;74.81
13407;BME280;6774;48.208;10.766;2023-06-04T02:37:47;95504.13;;;12.68;74.67
13407;BME280;6774;48.208;10.766;2023-06-04T02:40:15;95506.78;;;12.68;74.45
13407;BME280;6774;48.208;10.766;2023-06-04T02:42:43;95514.34;;;12.71;74.36
13407;BME280;6774;48.208;10.766;2023-06-04T02:45:11;95516.97;;;12.71;74.57
13407;BME280;6774;48.208;10.766;2023-06-04T02:47:40;95522.44;;;12.70;74.15
13407;BME280;6774;48.208;10.766;2023-06-04T02:50:08;95516.75;;;12.66;74.50
13407;BME280;6774;48.208;10.766;2023-06-04T02:52:36;95516.75;;;12.66;74.35
13407;BME280;6774;48.208;10.766;2023-06-04T02:55:06;95515.94;;;12.66;74.38
13407;BME280;6774;48.208;10.766;2023-06-04T02:57:35;95512.69;;;12.64;74.35
13407;BME280;6774;48.208;10.766;2023-06-04T03:00:04;95507.75;;;12.61;74.23
13407;BME280;6774;48.208;10.766;2023-06-04T03:02:41;95506.34;;;12.58;74.01
13407;BME280;6774;48.208;10.766;2023-06-04T03:05:10;95531.38;;;12.56;73.85
13407;BME280;6774;48.208;10.766;2023-06-04T03:07:42;95524.69;;;12.53;74.04
13407;BME280;6774;48.208;10.766;2023-06-04T03:10:12;95525.06;;;12.50;74.12
13407;BME280;6774;48.208;10.766;2023-06-04T03:12:40;95529.53;;;12.49;74.20
13407;BME280;6774;48.208;10.766;2023-06-04T03:15:08;95523.22;;;12.50;74.25
13407;BME280;6774;48.208;10.766;2023-06-04T03:17:37;95517.09;;;12.50;74.40
13407;BME280;6774;48.208;10.766;2023-06-04T03:20:07;95521.56;;;12.43;73.83
13407;BME280;6774;48.208;10.766;2023-06-04T03:22:36;95523.38;;;12.36;73.90
13407;BME280;6774;48.208;10.766;2023-06-04T03:25:05;95524.78;;;12.32;74.09
13407;BME280;6774;48.208;10.766;2023-06-04T03:27:33;95531.09;;;12.31;74.24
13407;BME280;6774;48.208;10.766;2023-06-04T03:30:02;95530.06;;;12.32;74.01
13407;BME280;6774;48.208;10.766;2023-06-04T03:32:39;95530.06;;;12.32;73.80
13407;BME280;6774;48.208;10.766;2023-06-04T03:35:09;95532.72;;;12.32;73.76
13407;BME280;6774;48.208;10.766;2023-06-04T03:37:36;95534.56;;;12.31;73.83
13407;BME280;6774;48.208;10.766;2023-06-04T03:40:05;95532.09;;;12.30;73.50
13407;BME280;6774;48.208;10.766;2023-06-04T03:42:37;95543.09;;;12.27;73.58
13407;BME280;6774;48.208;10.766;2023-06-04T03:45:06;95532.50;;;12.27;74.25
13407;BME280;6774;48.208;10.766;2023-06-04T03:47:35;95534.97;;;12.28;74.79
13407;BME280;6774;48.208;10.766;2023-06-04T03:50:04;95532.91;;;12.30;75.22
13407;BME280;6774;48.208;10.766;2023-06-04T03:52:33;95531.91;;;12.31;75.24
13407;BME280;6774;48.208;10.766;2023-06-04T03:55:02;95535.78;;;12.29;75.18
13407;BME280;6774;48.208;10.766;2023-06-04T03:57:30;95546.97;;;12.31;75.03
13407;BME280;6774;48.208;10.766;2023-06-04T03:59:59;95541.91;;;12.36;75.04
13407;BME280;6774;48.208;10.766;2023-06-04T04:02:39;95548.03;;;12.43;75.46
13407;BME280;6774;48.208;10.766;2023-06-04T04:05:11;95546.41;;;12.42;75.27
13407;BME280;6774;48.208;10.766;2023-06-04T04:07:44;95546.84;;;12.45;75.20
13407;BME280;6774;48.208;10.766;2023-06-04T04:10:16;95551.75;;;12.55;75.07
13407;BME280;6774;48.208;10.766;2023-06-04T04:12:44;95555.84;;;12.64;74.71
13407;BME280;6774;48.208;10.766;2023-06-04T04:15:12;95557.09;;;12.75;74.08
13407;BME280;6774;48.208;10.766;2023-06-04T04:17:41;95547.16;;;12.84;73.62
13407;BME280;6774;48.208;10.766;2023-06-04T04:20:10;95552.66;;;12.95;73.08
13407;BME280;6774;48.208;10.766;2023-06-04T04:22:47;95551.06;;;13.01;72.94
13407;BME280;6774;48.208;10.766;2023-06-04T04:25:18;95560.00;;;13.06;72.76
13407;BME280;6774;48.208;10.766;2023-06-04T04:27:46;95560.63;;;13.15;72.69
13407;BME280;6774;48.208;10.766;2023-06-04T04:30:15;95560.88;;;13.20;72.55
13407;BME280;6774;48.208;10.766;2023-06-04T04:32:47;95559.47;;;13.31;72.35
13407;BME280;6774;48.208;10.766;2023-06-04T04:35:22;95562.53;;;13.41;72.08
13407;BME280;6774;48.208;10.766;2023-06-04T04:37:55;95562.53;;;13.48;71.63
13407;BME280;6774;48.208;10.766;2023-06-04T04:40:24;95559.88;;;13.54;71.54
13407;BME280;6774;48.208;10.766;2023-06-04T04:42:54;95556.81;;;13.64;71.05
13407;BME280;6774;48.208;10.766;2023-06-04T04:45:22;95573.72;;;13.76;71.23
13407;BME280;6774;48.208;10.766;2023-06-04T04:47:53;95567.81;;;13.87;70.55
13407;BME280;6774;48.208;10.766;2023-06-04T04:50:21;95564.34;;;13.93;70.10
13407;BME280;6774;48.208;10.766;2023-06-04T04:52:50;95574.72;;;14.02;69.88
13407;BME280;6774;48.208;10.766;2023-06-04T04:55:19;95573.47;;;14.11;69.48
13407;BME280;6774;48.208;10.766;2023-06-04T04:57:49;95574.69;;;14.15;69.34
13407;BME280;6774;48.208;10.766;2023-06-04T05:00:18;95587.94;;;14.28;69.01
13407;BME280;6774;48.208;10.766;2023-06-04T05:02:51;95588.94;;;14.34;69.42
13407;BME280;6774;48.208;10.766;2023-06-04T05:05:19;95583.59;;;14.40;68.51
13407;BME280;6774;48.208;10.766;2023-06-04T05:07:49;95581.34;;;14.50;68.40
13407;BME280;6774;48.208;10.766;2023-06-04T05:10:20;95581.13;;;14.59;68.28
13407;BME280;6774;48.208;10.766;2023-06-04T05:12:52;95586.38;;;14.72;68.55
13407;BME280;6774;48.208;10.766;2023-06-04T05:15:23;95585.09;;;14.81;68.04
13407;BME280;6774;48.208;10.766;2023-06-04T05:17:52;95587.50;;;14.89;67.58
13407;BME280;6774;48.208;10.766;2023-06-04T05:20:20;95591.59;;;14.92;67.59
13407;BME280;6774;48.208;10.766;2023-06-04T05:22:49;95596.88;;;14.98;67.91
13407;BME280;6774;48.208;10.766;2023-06-04T05:25:21;95598.91;;;15.03;68.00
13407;BME280;6774;48.208;10.766;2023-06-04T05:27:50;95601.69;;;15.15;67.88
13407;BME280;6774;48.208;10.766;2023-06-04T05:30:19;95598.34;;;15.26;67.16
13407;BME280;6774;48.208;10.766;2023-06-04T05:32:47;95602.78;;;15.39;66.81
13407;BME280;6774;48.208;10.766;2023-06-04T05:35:20;95603.47;;;15.52;67.32
13407;BME280;6774;48.208;10.766;2023-06-04T05:37:48;95609.97;;;15.63;66.84
13407;BME280;6774;48.208;10.766;2023-06-04T05:40:26;95611.75;;;15.76;66.67
13407;BME280;6774;48.208;10.766;2023-06-04T05:42:54;95620.03;;;15.86;66.55
13407;BME280;6774;48.208;10.766;2023-06-04T05:45:22;95619.91;;;15.99;66.39
13407;BME280;6774;48.208;10.766;2023-06-04T05:47:53;95616.25;;;16.00;65.79
13407;BME280;6774;48.208;10.766;2023-06-04T05:50:22;95616.97;;;16.07;65.47
13407;BME280;6774;48.208;10.766;2023-06-04T05:52:50;95619.38;;;16.15;66.05
13407;BME280;6774;48.208;10.766;2023-06-04T05:55:19;95616.88;;;16.20;65.87
13407;BME280;6774;48.208;10.766;2023-06-04T05:57:51;95618.81;;;16.32;65.16
13407;BME280;6774;48.208;10.766;2023-06-04T06:00:19;95611.13;;;16.42;64.24
13407;BME280;6774;48.208;10.766;2023-06-04T06:02:49;95612.44;;;16.51;63.65
13407;BME280;6774;48.208;10.766;2023-06-04T06:05:30;95617.84;;;16.63;63.32
13407;BME280;6774;48.208;10.766;2023-06-04T06:07:58;95617.66;;;16.64;62.51
13407;BME280;6774;48.208;10.766;2023-06-04T06:10:26;95620.91;;;16.66;62.20
13407;BME280;6774;48.208;10.766;2023-06-04T06:12:55;95621.06;;;16.71;62.29
13407;BME280;6774;48.208;10.766;2023-06-04T06:15:23;95622.69;;;16.72;62.22
13407;BME280;6774;48.208;10.766;2023-06-04T06:17:52;95619.88;;;16.86;62.66
13407;BME280;6774;48.208;10.766;2023-06-04T06:20:20;95626.22;;;17.03;62.81
13407;BME280;6774;48.208;10.766;2023-06-04T06:22:48;95635.06;;;17.15;61.79
13407;BME280;6774;48.208;10.766;2023-06-04T06:25:18;95636.63;;;17.23;62.02
13407;BME280;6774;48.208;10.766;2023-06-04T06:27:54;95639.63;;;17.26;61.22
13407;BME280;6774;48.208;10.766;2023-06-04T06:30:23;95632.69;;;17.25;61.71
13407;BME280;6774;48.208;10.766;2023-06-04T06:32:51;95641.09;;;17.41;61.26
13407;BME280;6774;48.208;10.766;2023-06-04T06:35:22;95643.81;;;17.64;61.17
13407;BME280;6774;48.208;10.766;2023-06-04T06:37:49;95639.66;;;17.68;61.29
13407;BME280;6774;48.208;10.766;2023-06-04T06:40:17;95638.00;;;17.85;60.85
13407;BME280;6774;48.208;10.766;2023-06-04T06:42:48;95640.19;;;17.88;59.97
13407;BME280;6774;48.208;10.766;2023-06-04T06:45:17;95646.84;;;17.98;60.94
13407;BME280;6774;48.208;10.766;2023-06-04T06:47:45;95642.69;;;18.13;59.75
13407;BME280;6774;48.208;10.766;2023-06-04T06:50:13;95638.16;;;18.14;60.31
13407;BME280;6774;48.208;10.766;2023-06-04T06:52:41;95644.75;;;18.46;59.89
13407;BME280;6774;48.208;10.766;2023-06-04T06:55:09;95644.28;;;18.61;60.04
13407;BME280;6774;48.208;10.766;2023-06-04T06:57:37;95639.88;;;18.79;58.97
13407;BME280;6774;48.208;10.766;2023-06-04T07:00:06;95644.38;;;18.90;58.59
13407;BME280;6774;48.208;10.766;2023-06-04T07:02:35;95645.28;;;19.07;58.36
13407;BME280;6774;48.208;10.766;2023-06-04T07:05:03;95646.44;;;19.11;58.29
13407;BME280;6774;48.208;10.766;2023-06-04T07:07:31;95639.25;;;19.28;58.40
13407;BME280;6774;48.208;10.766;2023-06-04T07:09:59;95639.66;;;19.49;58.07
13407;BME280;6774;48.208;10.766;2023-06-04T07:12:27;95639.31;;;19.57;57.66
13407;BME280;6774;48.208;10.766;2023-06-04T07:14:55;95649.94;;;19.69;56.90
13407;BME280;6774;48.208;10.766;2023-06-04T07:17:23;95636.63;;;19.74;56.54
13407;BME280;6774;48.208;10.766;2023-06-04T07:19:53;95641.44;;;19.88;57.16
13407;BME280;6774;48.208;10.766;2023-06-04T07:22:20;95635.84;;;19.90;56.53
13407;BME280;6774;48.208;10.766;2023-06-04T07:24:48;95640.00;;;20.14;55.66
13407;BME280;6774;48.208;10.766;2023-06-04T07:27:16;95640.38;;;20.40;55.11
13407;BME280;6774;48.208;10.766;2023-06-04T07:29:45;95644.91;;;20.56;54.73
13407;BME280;6774;48.208;10.766;2023-06-04T07:32:13;95649.56;;;20.83;54.91
13407;BME280;6774;48.208;10.766;2023-06-04T07:34:40;95640.09;;;20.97;54.07
13407;BME280;6774;48.208;10.766;2023-06-04T07:37:09;95654.59;;;20.96;53.79
13407;BME280;6774;48.208;10.766;2023-06-04T07:39:39;95653.09;;;21.05;54.40
13407;BME280;6774;48.208;10.766;2023-06-04T07:42:07;95646.84;;;21.21;54.58
13407;BME280;6774;48.208;10.766;2023-06-04T07:44:36;95648.09;;;21.36;54.02
13407;BME280;6774;48.208;10.766;2023-06-04T07:47:05;95646.34;;;21.24;53.14
13407;BME280;6774;48.208;10.766;2023-06-04T07:49:33;95653.22;;;21.15;52.78
13407;BME280;6774;48.208;10.766;2023-06-04T07:52:00;95649.91;;;21.30;53.19
13407;BME280;6774;48.208;10.766;2023-06-04T07:54:29;95654.03;;;21.38;52.80
13407;BME280;6774;48.208;10.766;2023-06-04T07:56:57;95652.69;;;21.62;52.41
13407;BME280;6774;48.208;10.766;2023-06-04T07:59:25;95647.56;;;21.88;52.69
13407;BME280;6774;48.208;10.766;2023-06-04T08:01:53;95649.44;;;22.14;52.23
13407;BME280;6774;48.208;10.766;2023-06-04T08:04:21;95644.13;;;22.24;51.47
13407;BME280;6774;48.208;10.766;2023-06-04T08:06:49;95645.34;;;22.43;52.94
13407;BME280;6774;48.208;10.766;2023-06-04T08:09:18;95647.63;;;22.67;51.91
13407;BME280;6774;48.208;10.766;2023-06-04T08:11:48;95652.69;;;23.01;51.86
13407;BME280;6774;48.208;10.766;2023-06-04T08:14:16;95651.47;;;23.23;50.53
13407;BME280;6774;48.208;10.766;2023-06-04T08:16:45;95649.31;;;23.31;50.87
13407;BME280;6774;48.208;10.766;2023-06-04T08:19:13;95650.19;;;23.46;50.39
13407;BME280;6774;48.208;10.766;2023-06-04T08:21:42;95647.59;;;23.72;49.54
13407;BME280;6774;48.208;10.766;2023-06-04T08:24:11;95647.06;;;24.10;50.15
13407;BME280;6774;48.208;10.766;2023-06-04T08:26:39;95642.22;;;24.23;47.91
13407;BME280;6774;48.208;10.766;2023-06-04T08:29:08;95648.69;;;24.27;47.51
13407;BME280;6774;48.208;10.766;2023-06-04T08:31:36;95650.03;;;24.50;47.37
13407;BME280;6774;48.208;10.766;2023-06-04T08:34:05;95656.25;;;24.60;48.04
13407;BME280;6774;48.208;10.766;2023-06-04T08:36:33;95649.78;;;24.61;47.57
13407;BME280;6774;48.208;10.766;2023-06-04T08:39:01;95654.63;;;24.54;46.83
13407;BME280;6774;48.208;10.766;2023-06-04T08:41:32;95653.50;;;24.86;46.09
13407;BME280;6774;48.208;10.766;2023-06-04T08:44:04;95653.44;;;25.01;46.92
13407;BME280;6774;48.208;10.766;2023-06-04T08:46:37;95652.78;;;25.40;47.13
13407;BME280;6774;48.208;10.766;2023-06-04T08:49:07;95657.91;;;25.46;45.31
13407;BME280;6774;48.208;10.766;2023-06-04T08:51:36;95650.13;;;25.30;44.60
13407;BME280;6774;48.208;10.766;2023-06-04T08:54:05;95652.81;;;25.35;46.36
13407;BME280;6774;48.208;10.766;2023-06-04T08:56:34;95661.94;;;25.49;45.01
13407;BME280;6774;48.208;10.766;2023-06-04T08:59:03;95658.31;;;25.74;44.95
13407;BME280;6774;48.208;10.766;2023-06-04T09:01:34;95660.22;;;25.73;42.90
13407;BME280;6774;48.208;10.766;2023-06-04T09:04:05;95664.34;;;25.50;44.24
13407;BME280;6774;48.208;10.766;2023-06-04T09:06:39;95658.81;;;25.81;45.47
13407;BME280;6774;48.208;10.766;2023-06-04T09:09:09;95661.53;;;25.81;43.85
13407;BME280;6774;48.208;10.766;2023-06-04T09:11:40;95657.50;;;25.68;44.16
13407;BME280;6774;48.208;10.766;2023-06-04T09:14:09;95659.78;;;26.00;43.68
13407;BME280;6774;48.208;10.766;2023-06-04T09:16:44;95659.31;;;26.22;43.55
13407;BME280;6774;48.208;10.766;2023-06-04T09:19:12;95662.09;;;26.12;43.16
13407;BME280;6774;48.208;10.766;2023-06-04T09:21:47;95663.25;;;26.06;42.10
13407;BME280;6774;48.208;10.766;2023-06-04T09:24:15;95654.59;;;26.04;42.26
13407;BME280;6774;48.208;10.766;2023-06-04T09:26:43;95645.72;;;25.98;43.30
13407;BME280;6774;48.208;10.766;2023-06-04T09:29:11;95655.59;;;26.18;43.55
13407;BME280;6774;48.208;10.766;2023-06-04T09:31:39;95650.56;;;26.35;42.04
13407;BME280;6774;48.208;10.766;2023-06-04T09:34:08;95657.25;;;26.77;44.11
13407;BME280;6774;48.208;10.766;2023-06-04T09:36:36;95650.75;;;27.07;41.55
13407;BME280;6774;48.208;10.766;2023-06-04T09:39:14;95651.97;;;27.39;41.79
13407;BME280;6774;48.208;10.766;2023-06-04T09:41:42;95653.03;;;27.62;41.44
13407;BME280;6774;48.208;10.766;2023-06-04T09:44:11;95653.03;;;27.62;40.78
13407;BME280;6774;48.208;10.766;2023-06-04T09:46:39;95646.22;;;28.21;41.26
13407;BME280;6774;48.208;10.766;2023-06-04T09:49:07;95640.72;;;28.58;41.29
13407;BME280;6774;48.208;10.766;2023-06-04T09:51:46;95637.41;;;28.48;41.23
13407;BME280;6774;48.208;10.766;2023-06-04T09:54:15;95637.34;;;28.67;40.77
13407;BME280;6774;48.208;10.766;2023-06-04T09:56:43;95631.84;;;28.39;38.55
13407;BME280;6774;48.208;10.766;2023-06-04T09:59:13;95630.66;;;28.45;39.60
13407;BME280;6774;48.208;10.766;2023-06-04T10:01:42;95634.31;;;28.54;41.55
13407;BME280;6774;48.208;10.766;2023-06-04T10:04:13;95635.59;;;29.03;41.61
13407;BME280;6774;48.208;10.766;2023-06-04T10:06:43;95637.19;;;29.32;39.88
13407;BME280;6774;48.208;10.766;2023-06-04T10:09:12;95633.97;;;29.30;39.49
13407;BME280;6774;48.208;10.766;2023-06-04T10:11:52;95620.78;;;28.96;38.62
13407;BME280;6774;48.208;10.766;2023-06-04T10:14:26;95633.50;;;28.68;38.23
13407;BME280;6774;48.208;10.766;2023-06-04T10:16:56;95630.84;;;28.49;38.68
13407;BME280;6774;48.208;10.766;2023-06-04T10:19:26;95636.66;;;28.42;39.84
13407;BME280;6774;48.208;10.766;2023-06-04T10:21:56;95635.53;;;28.76;39.27
13407;BME280;6774;48.208;10.766;2023-06-04T10:24:24;95634.97;;;28.93;37.69
13407;BME280;6774;48.208;10.766;2023-06-04T10:26:54;95645.06;;;28.92;39.38
13407;BME280;6774;48.208;10.766;2023-06-04T10:29:25;95636.53;;;28.80;37.67
13407;BME280;6774;48.208;10.766;2023-06-04T10:31:53;95626.09;;;28.87;37.61
13407;BME280;6774;48.208;10.766;2023-06-04T10:34:21;95625.91;;;28.83;36.70
13407;BME280;6774;48.208;10.766;2023-06-04T10:36:49;95624.31;;;29.10;38.09
13407;BME280;6774;48.208;10.766;2023-06-04T10:39:26;95629.75;;;29.51;39.31
13407;BME280;6774;48.208;10.766;2023-06-04T10:41:59;95628.13;;;29.50;36.97
13407;BME280;6774;48.208;10.766;2023-06-04T10:44:27;95629.16;;;29.54;36.08
13407;BME280;6774;48.208;10.766;2023-06-04T10:46:56;95623.50;;;29.64;36.32
13407;BME280;6774;48.208;10.766;2023-06-04T10:49:27;95620.47;;;29.52;37.30
13407;BME280;6774;48.208;10.766;2023-06-04T10:51:56;95624.47;;;29.68;37.72
13407;BME280;6774;48.208;10.766;2023-06-04T10:54:31;95624.31;;;29.51;36.29
13407;BME280;6774;48.208;10.766;2023-06-04T10:57:10;95628.72;;;29.61;36.33
13407;BME280;6774;48.208;10.766;2023-06-04T10:59:38;95618.63;;;29.75;36.40
13407;BME280;6774;48.208;10.766;2023-06-04T11:02:07;95619.00;;;29.82;36.46
13407;BME280;6774;48.208;10.766;2023-06-04T11:04:35;95622.59;;;29.55;36.22
13407;BME280;6774;48.208;10.766;2023-06-04T11:07:04;95625.78;;;29.71;37.40
13407;BME280;6774;48.208;10.766;2023-06-04T11:09:38;95622.00;;;29.81;34.66
13407;BME280;6774;48.208;10.766;2023-06-04T11:12:14;95623.91;;;29.58;35.50
13407;BME280;6774;48.208;10.766;2023-06-04T11:14:53;95620.66;;;29.42;35.77
13407;BME280;6774;48.208;10.766;2023-06-04T11:17:21;95624.50;;;29.41;35.72
13407;BME280;6774;48.208;10.766;2023-06-04T11:19:50;95616.25;;;29.46;34.78
13407;BME280;6774;48.208;10.766;2023-06-04T11:22:22;95616.22;;;29.60;35.83
13407;BME280;6774;48.208;10.766;2023-06-04T11:24:56;95614.09;;;29.70;35.23
13407;BME280;6774;48.208;10.766;2023-06-04T11:27:25;95617.34;;;29.95;34.87
13407;BME280;6774;48.208;10.766;2023-06-04T11:30:03;95613.41;;;30.23;37.09
13407;BME280;6774;48.208;10.766;2023-06-04T11:32:31;95615.50;;;30.71;35.29
13407;BME280;6774;48.208;10.766;2023-06-04T11:35:03;95612.47;;;30.50;34.29
13407;BME280;6774;48.208;10.766;2023-06-04T11:37:32;95614.28;;;30.55;36.15
13407;BME280;6774;48.208;10.766;2023-06-04T11:40:02;95607.84;;;30.73;34.61
13407;BME280;6774;48.208;10.766;2023-06-04T11:42:31;95611.41;;;30.82;34.46
13407;BME280;6774;48.208;10.766;2023-06-04T11:45:00;95600.91;;;30.67;33.30
13407;BME280;6774;48.208;10.766;2023-06-04T11:47:28;95603.88;;;30.35;33.62
13407;BME280;6774;48.208;10.766;2023-06-04T11:49:58;95600.34;;;30.56;33.40
13407;BME280;6774;48.208;10.766;2023-06-04T11:52:27;95602.22;;;30.47;32.67
13407;BME280;6774;48.208;10.766;2023-06-04T11:54:55;95594.69;;;30.53;33.24
13407;BME280;6774;48.208;10.766;2023-06-04T11:57:24;95599.16;;;30.49;32.06
13407;BME280;6774;48.208;10.766;2023-06-04T11:59:52;95592.84;;;29.95;34.43
13407;BME280;6774;48.208;10.766;2023-06-04T12:02:21;95600.44;;;30.20;34.13
13407;BME280;6774;48.208;10.766;2023-06-04T12:04:50;95595.84;;;30.29;34.69
13407;BME280;6774;48.208;10.766;2023-06-04T12:07:20;95592.75;;;30.22;33.87
13407;BME280;6774;48.208;10.766;2023-06-04T12:09:50;95585.47;;;30.09;33.70
13407;BME280;6774;48.208;10.766;2023-06-04T12:12:21;95586.38;;;30.05;34.06
13407;BME280;6774;48.208;10.766;2023-06-04T12:14:57;95590.56;;;29.38;35.73
13407;BME280;6774;48.208;10.766;2023-06-04T12:17:25;95580.47;;;29.89;37.76
13407;BME280;6774;48.208;10.766;2023-06-04T12:19:53;95589.66;;;30.15;35.58
13407;BME280;6774;48.208;10.766;2023-06-04T12:22:22;95583.38;;;30.28;35.74
13407;BME280;6774;48.208;10.766;2023-06-04T12:24:51;95579.03;;;30.27;37.08
13407;BME280;6774;48.208;10.766;2023-06-04T12:27:21;95592.28;;;30.20;34.12
13407;BME280;6774;48.208;10.766;2023-06-04T12:29:59;95584.81;;;29.90;34.44
13407;BME280;6774;48.208;10.766;2023-06-04T12:32:27;95586.34;;;29.32;33.90
13407;BME280;6774;48.208;10.766;2023-06-04T12:34:56;95598.13;;;28.86;34.95
13407;BME280;6774;48.208;10.766;2023-06-04T12:37:24;95594.72;;;28.81;35.24
13407;BME280;6774;48.208;10.766;2023-06-04T12:39:52;95591.28;;;28.89;35.83
13407;BME280;6774;48.208;10.766;2023-06-04T12:42:20;95595.34;;;28.92;37.51
13407;BME280;6774;48.208;10.766;2023-06-04T12:44:48;95592.91;;;29.04;37.62
13407;BME280;6774;48.208;10.766;2023-06-04T12:47:17;95587.88;;;28.83;34.92
13407;BME280;6774;48.208;10.766;2023-06-04T12:49:45;95588.47;;;28.34;36.65
13407;BME280;6774;48.208;10.766;2023-06-04T12:52:13;95586.84;;;28.79;36.83
13407;BME280;6774;48.208;10.766;2023-06-04T12:54:41;95577.00;;;28.83;36.78
13407;BME280;6774;48.208;10.766;2023-06-04T12:57:09;95579.94;;;29.01;36.11
13407;BME280;6774;48.208;10.766;2023-06-04T12:59:37;95573.00;;;29.08;35.02
13407;BME280;6774;48.208;10.766;2023-06-04T13:02:05;95572.16;;;29.22;35.02
13407;BME280;6774;48.208;10.766;2023-06-04T13:04:34;95578.91;;;29.24;34.36
13407;BME280;6774;48.208;10.766;2023-06-04T13:07:02;95570.44;;;29.26;35.31
13407;BME280;6774;48.208;10.766;2023-06-04T13:09:30;95566.13;;;29.25;35.47
13407;BME280;6774;48.208;10.766;2023-06-04T13:11:59;95568.78;;;29.02;35.98